Time;durP1;ratioP1;P1;durP2;ratioP2;P2;SDS_P1;SDS_P2;PMS_P1;PMS_P2;Temp;Humidity;BMP_temperature;BMP_pressure;BME280_temperature;BME280_humidity;BME280_pressure;Samples;Min_cycle;Max_cycle;Signal;HPM_P1;HPM_P2
2022/12/19 00:01:25;;;;;;;19.27;10.25;;;;;;;-0.63;100.00;102545.63;5088939;28;20064;-72
2022/12/19 00:03:56;;;;;;;18.40;11.10;;;;;;;-0.65;100.00;102543.09;5086319;28;20032;-72
2022/12/19 00:06:21;;;;;;;20.38;10.50;;;;;;;-0.70;100.00;102543.16;5084335;28;20031;-72
2022/12/19 00:08:49;;;;;;;17.23;9.75;;;;;;;-0.63;100.00;102538.81;5088756;28;20032;-73
2022/12/19 00:11:16;;;;;;;14.88;8.88;;;;;;;-0.53;100.00;102542.91;5087009;28;20028;-73
2022/12/19 00:13:42;;;;;;;14.63;8.10;;;;;;;-0.22;99.64;102539.84;5088488;28;20383;-72
2022/12/19 00:16:12;;;;;;;17.02;8.35;;;;;;;-0.09;98.28;102534.50;5086797;28;20028;-72
2022/12/19 00:18:39;;;;;;;13.20;7.55;;;;;;;-0.04;97.77;102537.84;5086412;28;20035;-72
2022/12/19 00:21:05;;;;;;;14.70;8.43;;;;;;;-0.12;98.40;102541.41;5086145;28;20032;-73
2022/12/19 00:23:33;;;;;;;16.80;8.57;;;;;;;-0.14;98.77;102535.47;5087392;28;20038;-74
2022/12/19 00:26:15;;;;;;;14.27;7.45;;;;;;;-0.01;96.72;102522.41;5087090;28;20452;-73
2022/12/19 00:28:42;;;;;;;15.52;8.15;;;;;;;0.05;97.65;102526.56;5080261;28;20627;-73
2022/12/19 00:31:08;;;;;;;16.92;8.77;;;;;;;0.05;97.78;102535.97;5088529;28;20038;-73
2022/12/19 00:33:34;;;;;;;16.77;7.90;;;;;;;0.13;96.72;102544.38;5086977;28;20024;-73
2022/12/19 00:36:02;;;;;;;17.13;9.57;;;;;;;0.26;95.91;102531.31;5089000;28;20077;-72
2022/12/19 00:38:28;;;;;;;15.13;8.27;;;;;;;0.30;94.89;102545.75;5086648;28;20032;-73
2022/12/19 00:40:54;;;;;;;14.98;7.70;;;;;;;0.31;95.42;102559.44;5088459;28;20024;-74
2022/12/19 00:43:19;;;;;;;14.98;8.07;;;;;;;0.26;97.05;102576.63;5085886;28;20035;-73
2022/12/19 00:45:45;;;;;;;15.07;8.45;;;;;;;0.17;97.94;102567.38;5087976;28;20051;-73
2022/12/19 00:48:11;;;;;;;12.75;7.28;;;;;;;0.14;98.44;102548.63;5085353;28;20035;-72
2022/12/19 00:50:36;;;;;;;14.23;8.05;;;;;;;0.11;99.48;102546.13;5087065;28;20081;-73
2022/12/19 00:53:02;;;;;;;14.90;8.02;;;;;;;0.06;99.31;102548.75;5088525;28;20085;-73
2022/12/19 00:55:27;;;;;;;11.65;6.88;;;;;;;0.18;97.59;102548.53;5092302;28;20047;-73
2022/12/19 00:57:53;;;;;;;12.13;6.50;;;;;;;0.29;97.46;102546.63;5089888;28;20467;-73
2022/12/19 01:00:18;;;;;;;12.07;6.60;;;;;;;0.46;95.09;102541.19;5087467;28;20036;-73
2022/12/19 01:02:44;;;;;;;13.77;6.78;;;;;;;0.56;94.45;102540.13;5086011;28;20085;-72
2022/12/19 01:05:10;;;;;;;10.20;5.63;;;;;;;0.66;93.29;102553.63;5083151;28;20043;-72
2022/12/19 01:07:35;;;;;;;8.93;5.15;;;;;;;0.81;91.49;102550.75;5088175;28;20483;-72
2022/12/19 01:10:01;;;;;;;9.23;4.82;;;;;;;1.08;87.80;102553.59;5085885;28;20456;-73
2022/12/19 01:12:45;;;;;;;8.73;5.53;;;;;;;1.19;88.30;102573.03;5089647;28;20041;-73
2022/12/19 01:15:20;;;;;;;10.43;5.95;;;;;;;1.10;89.44;102577.53;5091410;28;20117;-74
2022/12/19 01:17:47;;;;;;;10.45;5.95;;;;;;;0.98;91.81;102569.19;5085997;28;20047;-74
2022/12/19 01:20:15;;;;;;;12.30;6.75;;;;;;;0.82;94.95;102575.53;5087614;28;20416;-73
2022/12/19 01:22:41;;;;;;;10.63;6.28;;;;;;;0.65;95.99;102573.28;5077110;28;20036;-72
2022/12/19 01:25:07;;;;;;;11.93;6.97;;;;;;;0.57;96.39;102576.88;5083600;28;20080;-72
2022/12/19 01:27:32;;;;;;;13.95;6.75;;;;;;;0.54;98.30;102577.78;5086563;28;20123;-72
2022/12/19 01:29:58;;;;;;;12.00;6.47;;;;;;;0.48;99.31;102561.66;5087619;28;20036;-73
2022/12/19 01:32:23;;;;;;;12.65;6.90;;;;;;;0.43;100.00;102560.94;5085016;28;20476;-72
2022/12/19 01:34:49;;;;;;;12.95;6.40;;;;;;;0.41;100.00;102550.69;5087601;28;20071;-73
2022/12/19 01:37:14;;;;;;;14.13;6.70;;;;;;;0.46;100.00;102543.75;5088962;28;20108;-73
2022/12/19 01:39:40;;;;;;;11.93;6.90;;;;;;;0.57;96.56;102540.97;5083216;28;20379;-72
2022/12/19 01:42:13;;;;;;;11.25;6.38;;;;;;;0.76;94.21;102544.88;5089693;28;20040;-74
2022/12/19 01:44:39;;;;;;;12.07;6.75;;;;;;;0.93;92.84;102524.84;5089639;28;20360;-73
2022/12/19 01:47:12;;;;;;;12.82;7.28;;;;;;;1.15;88.72;102527.75;5094204;28;20028;-72
2022/12/19 01:49:37;;;;;;;12.32;6.40;;;;;;;1.13;88.63;102523.53;5087112;28;20132;-73
2022/12/19 01:52:06;;;;;;;10.18;5.68;;;;;;;1.08;88.98;102522.78;5090162;28;20134;-73
2022/12/19 01:54:35;;;;;;;12.85;6.45;;;;;;;0.95;89.46;102523.06;5088362;28;20044;-72
2022/12/19 01:57:05;;;;;;;12.85;7.20;;;;;;;0.92;90.42;102528.28;5086262;28;20502;-73
2022/12/19 01:59:37;;;;;;;8.52;5.00;;;;;;;0.86;92.09;102530.97;5089349;28;20471;-73
2022/12/19 02:02:10;;;;;;;10.00;6.30;;;;;;;0.85;92.12;102523.31;5086073;28;20035;-73
2022/12/19 02:04:36;;;;;;;9.38;5.93;;;;;;;0.94;91.27;102513.69;5087848;28;20094;-73
2022/12/19 02:07:04;;;;;;;11.10;6.05;;;;;;;0.88;93.40;102510.41;5089949;28;20131;-73
2022/12/19 02:09:30;;;;;;;12.93;6.50;;;;;;;0.83;93.76;102504.53;5088912;28;20016;-72
2022/12/19 02:11:58;;;;;;;11.23;5.43;;;;;;;0.89;92.66;102504.41;5089184;28;20050;-73
2022/12/19 02:14:24;;;;;;;13.32;6.38;;;;;;;1.02;91.45;102500.66;5088420;28;20097;-73
2022/12/19 02:17:16;;;;;;;13.88;6.35;;;;;;;1.10;90.89;102500.50;5089986;28;20028;-72
2022/12/19 02:20:00;;;;;;;13.82;6.43;;;;;;;1.07;91.09;102495.44;5086793;28;20059;-74
2022/12/19 02:22:44;;;;;;;10.50;6.00;;;;;;;1.04;92.47;102487.78;5086516;28;20023;-74
2022/12/19 02:25:35;;;;;;;10.65;5.72;;;;;;;1.00;90.71;102485.28;5084676;28;20066;-73
2022/12/19 02:28:25;;;;;;;8.70;5.38;;;;;;;1.02;92.82;102482.69;5087593;28;20729;-74
2022/12/19 02:31:20;;;;;;;9.00;5.25;;;;;;;0.92;95.05;102494.91;5087455;28;20032;-74
2022/12/19 02:33:54;;;;;;;9.48;5.18;;;;;;;0.79;97.41;102490.91;5085398;28;20043;-73
2022/12/19 02:36:32;;;;;;;8.57;5.30;;;;;;;0.73;98.72;102493.63;5084501;28;20411;-73
2022/12/19 02:39:06;;;;;;;9.05;4.88;;;;;;;0.68;100.00;102500.56;5091287;28;20032;-72
2022/12/19 02:41:57;;;;;;;9.75;5.65;;;;;;;0.61;100.00;102506.69;5089295;28;20024;-72
2022/12/19 02:44:32;;;;;;;10.05;5.50;;;;;;;0.58;100.00;102507.59;5085953;28;20095;-74
2022/12/19 02:47:01;;;;;;;8.43;5.15;;;;;;;0.55;100.00;102505.09;5089995;28;20384;-73
2022/12/19 02:49:32;;;;;;;10.05;6.13;;;;;;;0.57;100.00;102516.16;5088928;28;20122;-73
2022/12/19 02:52:10;;;;;;;13.38;6.43;;;;;;;0.57;100.00;102510.19;5087895;28;20024;-73
2022/12/19 02:54:37;;;;;;;9.00;5.32;;;;;;;0.55;100.00;102494.81;5092760;28;20052;-73
2022/12/19 02:57:14;;;;;;;10.27;5.53;;;;;;;0.56;100.00;102501.66;5093162;28;20028;-73
2022/12/19 02:59:48;;;;;;;10.95;5.43;;;;;;;0.58;100.00;102499.91;5089558;28;20024;-73
2022/12/19 03:02:22;;;;;;;10.15;5.68;;;;;;;0.59;100.00;102504.16;5088374;28;20028;-73
2022/12/19 03:05:02;;;;;;;9.57;5.20;;;;;;;0.59;100.00;102503.31;5089256;28;20058;-72
2022/12/19 03:08:09;;;;;;;10.48;6.22;;;;;;;0.63;100.00;102505.78;5087177;28;20031;-74
2022/12/19 03:10:56;;;;;;;13.20;7.38;;;;;;;0.61;100.00;102476.75;5075798;28;20047;-73
2022/12/19 03:13:29;;;;;;;13.70;7.47;;;;;;;0.66;100.00;102469.81;5093127;28;20027;-72
2022/12/19 03:15:55;;;;;;;12.00;5.57;;;;;;;0.69;100.00;102486.00;5089248;28;20039;-73
2022/12/19 03:18:21;;;;;;;11.68;6.10;;;;;;;0.84;95.33;102491.66;5087377;28;20028;-73
2022/12/19 03:20:59;;;;;;;10.88;6.05;;;;;;;1.17;92.94;102497.75;5087540;28;20383;-73
2022/12/19 03:23:26;;;;;;;8.98;5.45;;;;;;;1.42;89.48;102487.75;5093368;28;20059;-73
2022/12/19 03:25:54;;;;;;;8.90;5.18;;;;;;;1.49;89.47;102478.16;5087450;28;20119;-73
2022/12/19 03:28:27;;;;;;;9.18;5.28;;;;;;;1.47;87.77;102475.63;5093418;28;20044;-72
2022/12/19 03:30:53;;;;;;;9.70;6.10;;;;;;;1.40;88.28;102475.84;5094079;28;20030;-72
2022/12/19 03:33:22;;;;;;;10.50;5.97;;;;;;;1.31;91.16;102482.03;5091718;28;20032;-72
2022/12/19 03:35:49;;;;;;;9.60;5.55;;;;;;;1.23;92.21;102486.50;5089309;28;20217;-73
2022/12/19 03:38:19;;;;;;;11.05;5.25;;;;;;;1.17;93.55;102496.91;5084936;28;20031;-73
2022/12/19 03:40:45;;;;;;;8.32;5.00;;;;;;;1.09;95.13;102496.25;5088518;28;20024;-73
2022/12/19 03:43:13;;;;;;;12.05;6.72;;;;;;;1.04;96.45;102483.50;5087908;28;20363;-72
2022/12/19 03:45:38;;;;;;;9.52;5.90;;;;;;;1.00;97.71;102466.47;5087256;28;20016;-73
2022/12/19 03:48:10;;;;;;;9.43;5.55;;;;;;;0.99;98.06;102470.78;5089220;28;20510;-72
2022/12/19 03:50:47;;;;;;;11.50;6.80;;;;;;;0.98;98.47;102471.66;5087323;28;20040;-73
2022/12/19 03:53:28;;;;;;;13.70;5.75;;;;;;;1.00;97.29;102477.59;5087783;28;20032;-73
2022/12/19 03:56:05;;;;;;;10.18;6.15;;;;;;;1.05;98.62;102477.50;5081668;28;20395;-73
2022/12/19 03:58:35;;;;;;;9.90;5.80;;;;;;;1.02;98.63;102479.28;5086569;28;20115;-73
2022/12/19 04:01:03;;;;;;;12.20;5.82;;;;;;;0.92;98.19;102464.13;5085887;28;20063;-73
2022/12/19 04:03:30;;;;;;;11.57;5.72;;;;;;;0.82;100.00;102470.31;5086443;28;20536;-73
2022/12/19 04:05:58;;;;;;;11.40;5.80;;;;;;;0.81;99.99;102458.38;5091329;28;20089;-73
2022/12/19 04:08:25;;;;;;;9.23;5.10;;;;;;;0.81;98.81;102449.81;5089700;28;20451;-73
2022/12/19 04:10:56;;;;;;;10.45;5.30;;;;;;;0.89;98.48;102460.78;5080665;28;20024;-73
2022/12/19 04:13:42;;;;;;;9.98;5.70;;;;;;;0.91;100.00;102471.84;5085025;28;20390;-73
2022/12/19 04:16:16;;;;;;;11.27;5.72;;;;;;;0.90;100.00;102480.44;5085307;28;20055;-73
2022/12/19 04:18:50;;;;;;;9.52;5.18;;;;;;;0.87;100.00;102471.06;5089787;28;20083;-73
2022/12/19 04:21:29;;;;;;;10.98;5.82;;;;;;;0.86;100.00;102471.09;5086245;28;20563;-73
2022/12/19 04:24:03;;;;;;;10.77;6.20;;;;;;;0.90;100.00;102472.72;5086659;28;20040;-73
2022/12/19 04:26:31;;;;;;;9.88;5.80;;;;;;;0.93;100.00;102475.22;5077437;28;20105;-72
2022/12/19 04:29:01;;;;;;;11.35;6.20;;;;;;;0.91;100.00;102466.72;5080289;28;20035;-73
2022/12/19 04:31:27;;;;;;;11.25;6.72;;;;;;;0.90;100.00;102465.88;5079662;28;20035;-73
2022/12/19 04:33:52;;;;;;;10.45;6.25;;;;;;;1.02;100.00;102458.75;5085558;28;20028;-73
2022/12/19 04:36:18;;;;;;;15.00;7.53;;;;;;;1.18;99.62;102468.63;5085427;28;20799;-72
2022/12/19 04:38:44;;;;;;;10.75;5.95;;;;;;;1.28;97.42;102474.41;5093566;28;20037;-73
2022/12/19 04:41:09;;;;;;;11.55;6.68;;;;;;;1.29;97.39;102476.09;5087124;28;20402;-73
2022/12/19 04:43:34;;;;;;;12.38;6.65;;;;;;;1.35;95.17;102475.94;5087659;28;20067;-72
2022/12/19 04:46:00;;;;;;;13.05;7.15;;;;;;;1.40;94.51;102473.28;5088231;28;20047;-73
2022/12/19 04:48:26;;;;;;;11.02;5.90;;;;;;;1.39;93.44;102457.03;5089696;28;20035;-72
2022/12/19 04:50:51;;;;;;;12.77;7.30;;;;;;;1.39;93.94;102464.72;5086811;28;20024;-73
2022/12/19 04:53:17;;;;;;;13.18;6.45;;;;;;;1.36;94.09;102477.66;5087508;28;20036;-73
2022/12/19 04:55:43;;;;;;;12.27;6.90;;;;;;;1.37;93.78;102478.47;5085963;28;20062;-73
2022/12/19 04:58:08;;;;;;;11.20;6.28;;;;;;;1.33;94.56;102478.56;5090219;28;20039;-73
2022/12/19 05:00:34;;;;;;;9.57;6.53;;;;;;;1.23;95.43;102476.22;5086825;28;20476;-73
2022/12/19 05:02:59;;;;;;;10.95;6.60;;;;;;;1.08;97.12;102482.56;5085823;28;20035;-72
2022/12/19 05:05:25;;;;;;;11.02;6.78;;;;;;;0.90;98.42;102477.84;5085568;28;20048;-74
2022/12/19 05:07:50;;;;;;;11.00;7.22;;;;;;;0.76;100.00;102482.44;5090295;28;20080;-73
2022/12/19 05:10:16;;;;;;;11.95;7.68;;;;;;;0.63;100.00;102485.25;5087816;28;20486;-73
2022/12/19 05:12:41;;;;;;;14.15;7.55;;;;;;;0.57;100.00;102474.28;5087246;28;20028;-74
2022/12/19 05:15:07;;;;;;;12.75;7.10;;;;;;;0.53;100.00;102475.22;5086652;28;20040;-73
2022/12/19 05:17:33;;;;;;;14.07;7.65;;;;;;;0.47;100.00;102473.66;5089955;28;20391;-72
2022/12/19 05:19:58;;;;;;;13.65;8.23;;;;;;;0.50;100.00;102477.84;5090280;28;20559;-73
2022/12/19 05:22:24;;;;;;;16.13;8.82;;;;;;;0.49;100.00;102476.16;5091903;28;20028;-74
2022/12/19 05:24:49;;;;;;;14.48;9.35;;;;;;;0.46;100.00;102478.81;5091235;28;20115;-73
2022/12/19 05:27:15;;;;;;;15.63;9.32;;;;;;;0.41;100.00;102473.75;5090076;28;20038;-73
2022/12/19 05:29:40;;;;;;;15.45;8.82;;;;;;;0.36;100.00;102479.84;5088380;28;20108;-73
2022/12/19 05:32:06;;;;;;;15.25;8.98;;;;;;;0.29;100.00;102474.84;5088631;28;20020;-74
2022/12/19 05:34:31;;;;;;;16.23;8.75;;;;;;;0.22;100.00;102477.56;5090259;28;20058;-73
2022/12/19 05:36:57;;;;;;;15.10;8.35;;;;;;;0.44;100.00;102472.88;5088867;28;20028;-73
2022/12/19 05:39:23;;;;;;;15.57;7.85;;;;;;;0.65;98.74;102462.13;5089999;28;20032;-73
2022/12/19 05:41:48;;;;;;;15.73;8.35;;;;;;;0.76;97.36;102465.31;5088777;28;20050;-73
2022/12/19 05:44:14;;;;;;;21.08;11.60;;;;;;;0.81;97.61;102466.06;5086860;28;20039;-73
2022/12/19 05:46:40;;;;;;;19.50;10.18;;;;;;;0.73;98.62;102455.13;5088285;28;20108;-73
2022/12/19 05:49:06;;;;;;;15.32;9.25;;;;;;;0.70;99.16;102470.59;5089153;28;20032;-73
2022/12/19 05:51:31;;;;;;;17.83;9.55;;;;;;;0.75;97.51;102473.06;5088723;28;20034;-73
2022/12/19 05:53:59;;;;;;;14.85;8.55;;;;;;;0.73;98.48;102475.66;5089119;28;20024;-73
2022/12/19 05:56:25;;;;;;;14.57;7.95;;;;;;;0.72;99.33;102473.97;5089731;28;20044;-74
2022/12/19 05:58:50;;;;;;;14.80;7.90;;;;;;;0.81;98.33;102481.47;5089673;28;20028;-74
2022/12/19 06:01:25;;;;;;;12.80;7.63;;;;;;;1.02;94.57;102489.56;5089887;28;20032;-74
2022/12/19 06:03:51;;;;;;;17.52;8.98;;;;;;;1.08;94.91;102484.28;5088814;28;20081;-73
2022/12/19 06:06:19;;;;;;;16.25;9.13;;;;;;;1.06;95.65;102483.47;5088272;28;20028;-73
2022/12/19 06:08:45;;;;;;;13.27;7.95;;;;;;;1.03;96.90;102484.38;5089527;28;20043;-74
2022/12/19 06:11:12;;;;;;;12.65;7.45;;;;;;;0.97;98.23;102489.66;5089829;28;20056;-73
2022/12/19 06:13:38;;;;;;;14.40;7.78;;;;;;;0.94;100.00;102492.31;5087837;28;20048;-73
2022/12/19 06:16:10;;;;;;;13.45;6.95;;;;;;;0.98;98.28;102484.47;5090988;28;20405;-73
2022/12/19 06:18:36;;;;;;;12.30;7.90;;;;;;;1.02;98.77;102489.56;5087007;28;20169;-73
2022/12/19 06:21:05;;;;;;;13.20;7.45;;;;;;;1.01;99.63;102488.72;5087294;28;20081;-73
2022/12/19 06:23:33;;;;;;;13.85;7.97;;;;;;;0.93;100.00;102488.91;5081246;28;20788;-73
2022/12/19 06:26:00;;;;;;;15.15;8.43;;;;;;;0.99;97.71;102481.03;5088380;28;20060;-73
2022/12/19 06:28:27;;;;;;;14.52;7.68;;;;;;;0.99;98.56;102491.31;5085575;28;20059;-73
2022/12/19 06:30:59;;;;;;;12.32;7.55;;;;;;;0.93;98.42;102481.22;5088040;28;20024;-73
2022/12/19 06:33:26;;;;;;;12.30;8.02;;;;;;;0.89;98.85;102486.44;5089010;28;20482;-73
2022/12/19 06:36:19;;;;;;;13.30;6.88;;;;;;;0.85;95.93;102484.81;5089153;28;20039;-72
2022/12/19 06:38:44;;;;;;;12.55;7.30;;;;;;;1.07;94.67;102491.13;5088502;28;20032;-73
2022/12/19 06:43:58;;;;;;;14.77;8.25;;;;;;;1.23;92.90;102478.81;5090305;28;20043;-73
2022/12/19 06:46:24;;;;;;;12.10;7.55;;;;;;;1.27;91.38;102472.72;5089144;28;20100;-73
2022/12/19 06:48:50;;;;;;;11.82;6.78;;;;;;;1.31;90.07;102482.03;5087618;28;20071;-73
2022/12/19 06:51:15;;;;;;;12.40;7.35;;;;;;;1.36;90.20;102472.50;5086208;28;20028;-73
2022/12/19 06:53:41;;;;;;;18.17;9.70;;;;;;;1.25;91.27;102474.47;5092370;28;20028;-74
2022/12/19 06:56:07;;;;;;;15.52;9.27;;;;;;;1.15;92.76;102465.28;5088981;28;20048;-73
2022/12/19 06:58:33;;;;;;;14.50;8.95;;;;;;;1.13;93.61;102469.63;5087118;28;20028;-74
2022/12/19 07:01:00;;;;;;;19.58;11.10;;;;;;;1.18;93.74;102476.34;5086444;28;20093;-73
2022/12/19 07:03:30;;;;;;;23.75;12.43;;;;;;;1.10;94.52;102485.09;5088028;28;20091;-73
2022/12/19 07:05:55;;;;;;;22.60;11.05;;;;;;;1.00;95.17;102482.72;5088980;28;20028;-73
2022/12/19 07:08:21;;;;;;;19.95;10.57;;;;;;;1.04;95.75;102485.22;5088593;28;20038;-74
2022/12/19 07:10:46;;;;;;;19.08;10.98;;;;;;;1.07;96.21;102485.16;5089960;28;20112;-74
2022/12/19 07:13:12;;;;;;;38.50;18.48;;;;;;;1.11;95.90;102487.63;5087905;28;20027;-73
2022/12/19 07:15:38;;;;;;;21.70;10.93;;;;;;;1.18;95.24;102496.88;5082682;28;20040;-73
2022/12/19 07:18:07;;;;;;;26.75;14.88;;;;;;;1.30;95.57;102503.47;5088142;28;20089;-72
2022/12/19 07:20:35;;;;;;;30.70;15.02;;;;;;;1.38;94.69;102509.28;5088953;28;20046;-73
2022/12/19 07:23:02;;;;;;;18.60;10.93;;;;;;;1.50;94.36;102505.53;5092411;28;20020;-73
2022/12/19 07:25:28;;;;;;;20.98;11.75;;;;;;;1.60;93.80;102509.59;5085752;28;20173;-73
2022/12/19 07:27:53;;;;;;;17.13;10.38;;;;;;;1.67;92.37;102503.41;5089225;28;20044;-73
2022/12/19 07:30:19;;;;;;;18.35;11.65;;;;;;;1.73;93.22;102508.41;5088086;28;20065;-73
2022/12/19 07:32:44;;;;;;;22.20;11.27;;;;;;;1.78;93.31;102510.88;5086866;28;20646;-72
2022/12/19 07:35:09;;;;;;;19.25;10.68;;;;;;;1.84;92.73;102505.56;5086687;28;20032;-72
2022/12/19 07:37:35;;;;;;;17.75;11.25;;;;;;;1.90;92.93;102507.97;5088272;28;20475;-72
2022/12/19 07:40:01;;;;;;;17.02;9.88;;;;;;;1.95;91.71;102506.97;5087917;28;20058;-72
2022/12/19 07:42:27;;;;;;;18.23;10.88;;;;;;;1.98;92.20;102506.88;5087275;28;20505;-72
2022/12/19 07:44:52;;;;;;;17.05;10.60;;;;;;;2.02;91.93;102502.50;5086877;28;20032;-73
2022/12/19 07:47:18;;;;;;;19.92;12.05;;;;;;;2.06;92.80;102509.25;5084765;28;20126;-72
2022/12/19 07:49:43;;;;;;;19.25;11.73;;;;;;;2.06;92.53;102516.97;5086429;28;20073;-73
2022/12/19 07:52:09;;;;;;;21.05;12.05;;;;;;;2.07;92.05;102513.50;5085200;28;20082;-72
2022/12/19 07:54:34;;;;;;;19.98;12.18;;;;;;;2.09;91.87;102506.59;5084208;28;20048;-73
2022/12/19 07:57:00;;;;;;;19.88;11.05;;;;;;;2.14;91.57;102506.47;5085265;28;20122;-73
2022/12/19 07:59:25;;;;;;;18.48;10.30;;;;;;;2.21;90.61;102516.56;5088700;28;20449;-72
2022/12/19 08:01:51;;;;;;;21.58;11.60;;;;;;;2.27;91.17;102511.25;5082173;28;20023;-73
2022/12/19 08:04:16;;;;;;;18.77;10.50;;;;;;;2.32;91.21;102509.41;5084935;28;20028;-72
2022/12/19 08:06:42;;;;;;;20.38;10.98;;;;;;;2.31;90.05;102505.16;5084272;28;20514;-72
2022/12/19 08:09:08;;;;;;;21.05;11.73;;;;;;;2.36;90.62;102504.19;5086224;28;20110;-72
2022/12/19 08:11:33;;;;;;;20.27;11.57;;;;;;;2.35;90.82;102507.66;5086133;28;20607;-72
2022/12/19 08:13:59;;;;;;;21.70;12.55;;;;;;;2.36;89.63;102504.19;5084104;28;20036;-72
2022/12/19 08:16:26;;;;;;;19.67;10.52;;;;;;;2.36;90.13;102504.19;5085344;28;20036;-72
2022/12/19 08:18:52;;;;;;;17.27;10.13;;;;;;;2.38;88.91;102505.81;5085153;28;20085;-71
2022/12/19 08:21:18;;;;;;;20.00;10.10;;;;;;;2.41;89.38;102512.59;5085599;28;20039;-72
2022/12/19 08:23:44;;;;;;;16.77;9.80;;;;;;;2.44;89.76;102515.09;5086017;28;20028;-71
2022/12/19 08:26:14;;;;;;;20.95;11.40;;;;;;;2.44;90.53;102522.81;5082727;28;20020;-71
2022/12/19 08:28:39;;;;;;;21.15;10.88;;;;;;;2.43;89.55;102515.97;5083641;28;20032;-71
2022/12/19 08:31:10;;;;;;;18.27;9.82;;;;;;;2.47;89.64;102517.56;5084025;28;20082;-71
2022/12/19 08:33:36;;;;;;;17.92;10.13;;;;;;;2.52;89.03;102521.72;5086987;28;20996;-71
2022/12/19 08:36:06;;;;;;;15.80;10.20;;;;;;;2.56;87.85;102517.31;5083671;28;20475;-72
2022/12/19 08:38:32;;;;;;;20.15;11.13;;;;;;;2.63;87.85;102523.97;5081966;28;21558;-72
2022/12/19 08:40:58;;;;;;;18.05;10.77;;;;;;;2.68;88.14;102514.41;5083583;28;20126;-72
2022/12/19 08:43:24;;;;;;;18.83;11.10;;;;;;;2.79;88.85;102522.66;5081539;28;20036;-72
2022/12/19 08:45:49;;;;;;;19.92;9.88;;;;;;;2.82;87.93;102525.16;5080226;28;20403;-72
2022/12/19 08:48:16;;;;;;;21.10;11.10;;;;;;;2.86;88.39;102521.56;5079000;28;20116;-72
2022/12/19 08:51:09;;;;;;;19.40;10.48;;;;;;;2.85;84.18;102519.88;5080856;28;20123;-72
2022/12/19 08:53:37;;;;;;;17.83;9.70;;;;;;;2.91;86.09;102524.84;5082424;28;20051;-72
2022/12/19 08:56:10;;;;;;;17.30;10.48;;;;;;;2.99;86.11;102524.63;5079683;28;20505;-72
2022/12/19 08:58:35;;;;;;;17.77;10.98;;;;;;;3.11;86.28;102520.84;5082150;28;20055;-73
2022/12/19 09:01:07;;;;;;;16.75;9.65;;;;;;;3.31;86.43;102526.22;5084174;28;20028;-73
2022/12/19 09:03:34;;;;;;;17.20;10.18;;;;;;;3.46;86.68;102518.00;5083052;28;20031;-73
2022/12/19 09:06:02;;;;;;;17.05;10.43;;;;;;;3.58;87.86;102512.47;5081895;28;20835;-73
2022/12/19 09:08:28;;;;;;;17.85;11.50;;;;;;;3.67;87.75;102513.91;5080664;28;20040;-73
2022/12/19 09:10:58;;;;;;;17.30;10.60;;;;;;;3.76;87.29;102510.19;5084805;28;20066;-72
2022/12/19 09:13:25;;;;;;;18.85;11.35;;;;;;;3.75;86.94;102511.06;5081861;28;20036;-72
2022/12/19 09:15:59;;;;;;;15.52;10.00;;;;;;;3.67;86.82;102512.16;5080370;28;20036;-71
2022/12/19 09:18:24;;;;;;;18.58;10.38;;;;;;;3.71;87.41;102512.91;5074812;28;20031;-72
2022/12/19 09:20:53;;;;;;;16.73;10.40;;;;;;;3.77;88.08;102509.28;5085389;28;20020;-72
2022/12/19 09:23:19;;;;;;;15.07;9.85;;;;;;;3.87;88.26;102508.91;5082172;28;20032;-72
2022/12/19 09:25:44;;;;;;;16.27;9.82;;;;;;;4.00;88.11;102509.34;5080806;28;20031;-73
2022/12/19 09:28:10;;;;;;;17.05;10.52;;;;;;;4.07;88.62;102508.22;5083923;28;20040;-74
2022/12/19 09:30:35;;;;;;;16.75;10.00;;;;;;;4.17;88.57;102513.91;5082658;28;20725;-73
2022/12/19 09:33:00;;;;;;;16.70;8.73;;;;;;;4.26;88.30;102511.00;5081310;28;20029;-71
2022/12/19 09:35:26;;;;;;;15.23;8.75;;;;;;;4.29;87.73;102505.72;5083458;28;20024;-74
2022/12/19 09:37:51;;;;;;;16.40;8.77;;;;;;;4.20;86.65;102506.06;5083399;28;20093;-74
2022/12/19 09:40:17;;;;;;;16.25;9.63;;;;;;;4.13;86.08;102500.28;5082812;28;20024;-74
2022/12/19 09:43:00;;;;;;;14.05;8.45;;;;;;;4.13;86.07;102505.44;5079296;28;20092;-73
2022/12/19 09:45:51;;;;;;;14.95;9.02;;;;;;;4.13;84.68;102495.13;5081259;28;20039;-73
2022/12/19 09:48:17;;;;;;;19.35;8.45;;;;;;;4.17;83.29;102498.44;5076481;28;20032;-73
2022/12/19 09:51:10;;;;;;;16.60;8.70;;;;;;;4.20;82.11;102499.19;5090472;28;20031;-73
2022/12/19 09:53:55;;;;;;;12.68;7.93;;;;;;;4.23;82.56;102501.66;5079631;28;20460;-73
2022/12/19 09:56:22;;;;;;;13.50;8.40;;;;;;;4.28;83.42;102497.13;5085719;28;20093;-74
2022/12/19 09:58:56;;;;;;;13.98;8.55;;;;;;;4.27;81.86;102497.19;5083879;28;20054;-74
2022/12/19 10:01:29;;;;;;;16.23;9.02;;;;;;;4.21;81.64;102500.00;5082509;28;20138;-74
2022/12/19 10:04:17;;;;;;;15.02;8.45;;;;;;;4.14;77.60;102494.22;5088039;28;20062;-74
2022/12/19 10:06:42;;;;;;;13.68;8.77;;;;;;;4.17;82.42;102495.84;5082082;28;20028;-73
2022/12/19 10:09:13;;;;;;;17.00;10.25;;;;;;;4.20;82.30;102499.19;5079253;28;20032;-73
2022/12/19 10:11:39;;;;;;;15.27;9.55;;;;;;;4.23;83.44;102487.91;5086421;28;20138;-73
2022/12/19 10:14:37;;;;;;;16.58;9.05;;;;;;;4.16;79.78;102491.59;5081277;28;20046;-73
2022/12/19 10:17:24;;;;;;;19.45;11.15;;;;;;;4.20;80.80;102482.84;5081403;28;20177;-73
2022/12/19 10:20:08;;;;;;;16.08;9.30;;;;;;;4.27;82.29;102484.28;5083490;28;20368;-73
2022/12/19 10:23:01;;;;;;;15.18;9.35;;;;;;;4.35;83.55;102482.28;5083165;28;20040;-70
2022/12/19 10:25:46;;;;;;;17.75;10.27;;;;;;;4.34;82.00;102478.00;5081282;28;20119;-71
2022/12/19 10:28:31;;;;;;;18.70;9.75;;;;;;;4.31;82.76;102476.38;5085090;28;20036;-73
2022/12/19 10:31:17;;;;;;;15.05;9.23;;;;;;;4.37;83.57;102482.22;5085827;28;20034;-72
2022/12/19 10:34:00;;;;;;;15.82;9.50;;;;;;;4.49;83.64;102479.19;5084564;28;20552;-73
2022/12/19 10:36:26;;;;;;;22.83;9.73;;;;;;;4.58;84.19;102482.28;5084153;28;20395;-73
2022/12/19 10:39:02;;;;;;;18.67;8.88;;;;;;;4.53;83.23;102484.19;5087700;28;20023;-74
2022/12/19 10:41:31;;;;;;;15.20;9.13;;;;;;;4.52;82.74;102486.84;5084734;28;20097;-73
2022/12/19 10:44:08;;;;;;;14.05;8.65;;;;;;;4.56;82.71;102486.66;5088499;28;20111;-73
2022/12/19 10:46:41;;;;;;;16.90;8.38;;;;;;;4.52;81.22;102486.84;5080630;28;20028;-73
2022/12/19 10:49:12;;;;;;;16.35;8.60;;;;;;;4.63;81.84;102487.28;5084325;28;20042;-73
2022/12/19 10:51:37;;;;;;;16.45;8.73;;;;;;;4.67;81.74;102478.53;5086874;28;20131;-73
2022/12/19 10:54:03;;;;;;;16.08;8.52;;;;;;;4.65;80.54;102467.41;5085700;28;20132;-73
2022/12/19 10:56:30;;;;;;;15.98;9.15;;;;;;;4.69;81.55;102468.97;5083360;28;20028;-73
2022/12/19 10:58:57;;;;;;;15.20;10.02;;;;;;;4.71;80.76;102474.09;5084983;28;20065;-73
2022/12/19 11:01:29;;;;;;;15.82;9.30;;;;;;;4.76;81.78;102470.41;5084601;28;20483;-73
2022/12/19 11:04:29;;;;;;;19.17;9.68;;;;;;;4.84;80.61;102465.78;5077757;28;20317;-73
2022/12/19 11:07:16;;;;;;;16.60;9.25;;;;;;;4.90;80.19;102467.31;5083149;28;20038;-73
2022/12/19 11:09:45;;;;;;;15.50;10.27;;;;;;;4.96;81.07;102457.56;5082172;28;20115;-72
2022/12/19 11:12:17;;;;;;;17.35;10.75;;;;;;;5.02;81.85;102451.31;5086355;28;20157;-72
2022/12/19 11:15:02;;;;;;;16.10;9.90;;;;;;;5.13;82.11;102449.16;5083231;28;20031;-69
2022/12/19 11:17:30;;;;;;;14.65;9.27;;;;;;;5.12;81.16;102446.63;5083690;28;20508;-70
2022/12/19 11:19:56;;;;;;;16.15;10.02;;;;;;;5.02;80.61;102434.97;5085212;28;20042;-70
2022/12/19 11:22:23;;;;;;;15.30;10.00;;;;;;;4.97;80.55;102433.41;5099022;28;20038;-69
2022/12/19 11:24:54;;;;;;;14.73;9.55;;;;;;;4.94;80.64;102436.13;5084977;28;20036;-69
2022/12/19 11:27:39;;;;;;;17.27;10.57;;;;;;;4.85;77.61;102439.06;5084424;28;20036;-69
2022/12/19 11:30:19;;;;;;;16.88;10.18;;;;;;;4.84;77.53;102437.38;5084836;28;20109;-69
2022/12/19 11:32:47;;;;;;;16.15;9.60;;;;;;;4.91;79.67;102435.41;5081925;28;20097;-69
2022/12/19 11:35:15;;;;;;;18.95;11.00;;;;;;;5.02;79.28;102433.25;5086157;28;20040;-69
2022/12/19 11:37:50;;;;;;;20.60;12.15;;;;;;;5.08;79.11;102427.84;5087795;28;20414;-70